Time;durP1;ratioP1;P1;durP2;ratioP2;P2;SDS_P1;SDS_P2;PMS_P1;PMS_P2;Temp;Humidity;BMP_temperature;BMP_pressure;BME280_temperature;BME280_humidity;BME280_pressure;Samples;Min_cycle;Max_cycle;Signal;HPM_P1;HPM_P2
2021/05/17 00:01:37;;;;;;;;;;;10.40;99.90;;;;;;5077428;28;19924;-71
2021/05/17 00:04:04;;;;;;;;;;;10.40;99.90;;;;;;5077172;28;20346;-71
2021/05/17 00:06:30;;;;;;;;;;;10.40;99.90;;;;;;5077133;28;19991;-71
2021/05/17 00:08:57;;;;;;;;;;;10.40;99.90;;;;;;5077038;28;19924;-71
2021/05/17 00:11:23;;;;;;;;;;;10.40;99.90;;;;;;5077098;28;20330;-71
2021/05/17 00:13:50;;;;;;;;;;;10.40;99.90;;;;;;5076978;28;19931;-71
2021/05/17 00:16:18;;;;;;;;;;;10.40;99.90;;;;;;5076926;28;20326;-71
2021/05/17 00:18:44;;;;;;;;;;;10.40;99.90;;;;;;5077012;28;19920;-71
2021/05/17 00:21:10;;;;;;;;;;;10.40;99.90;;;;;;5076885;28;19920;-71
2021/05/17 00:23:37;;;;;;;;;;;10.40;99.90;;;;;;5076614;28;20364;-71
2021/05/17 00:26:04;;;;;;;;;;;10.40;99.90;;;;;;5076790;28;20322;-71
2021/05/17 00:28:30;;;;;;;;;;;10.40;99.90;;;;;;5076696;28;19962;-71
2021/05/17 00:30:56;;;;;;;;;;;10.40;99.90;;;;;;5076675;28;19924;-71
2021/05/17 00:33:24;;;;;;;;;;;10.30;99.90;;;;;;5076724;28;19930;-72
2021/05/17 00:35:50;;;;;;;;;;;10.30;99.90;;;;;;5076642;28;19932;-71
2021/05/17 00:38:17;;;;;;;;;;;10.30;99.90;;;;;;5076520;28;19978;-71
2021/05/17 00:40:43;;;;;;;;;;;10.30;99.90;;;;;;5076662;28;19943;-71
2021/05/17 00:43:10;;;;;;;;;;;10.30;99.90;;;;;;5076367;28;20387;-71
2021/05/17 00:45:36;;;;;;;;;;;10.30;99.90;;;;;;5076313;28;19949;-71
2021/05/17 00:48:03;;;;;;;;;;;10.30;99.90;;;;;;5076435;28;19920;-71
2021/05/17 00:50:30;;;;;;;;;;;10.30;99.90;;;;;;5076331;28;19921;-71
2021/05/17 00:52:57;;;;;;;;;;;10.20;99.90;;;;;;5076159;28;19935;-72
2021/05/17 00:55:23;;;;;;;;;;;10.20;99.90;;;;;;5076146;28;19950;-71
2021/05/17 00:57:50;;;;;;;;;;;10.20;99.90;;;;;;5076259;28;19920;-74
2021/05/17 01:00:21;;;;;;;;;;;10.20;99.90;;;;;;5076215;28;19928;-71
2021/05/17 01:02:48;;;;;;;;;;;10.10;99.90;;;;;;5076138;28;20261;-71
2021/05/17 01:05:14;;;;;;;;;;;10.10;99.90;;;;;;5075884;28;20266;-72
2021/05/17 01:07:46;;;;;;;;;;;10.10;99.90;;;;;;5075834;28;19968;-71
2021/05/17 01:10:13;;;;;;;;;;;10.10;99.90;;;;;;5075918;28;19926;-71
2021/05/17 01:12:39;;;;;;;;;;;10.10;99.90;;;;;;5075881;28;20007;-71
2021/05/17 01:15:06;;;;;;;;;;;10.00;99.90;;;;;;5075812;28;19921;-71
2021/05/17 01:17:32;;;;;;;;;;;10.00;99.90;;;;;;5075836;28;19920;-71
2021/05/17 01:20:03;;;;;;;;;;;10.00;99.90;;;;;;5075616;28;19927;-72
2021/05/17 01:22:36;;;;;;;;;;;9.90;99.90;;;;;;5075615;28;19994;-71
2021/05/17 01:25:04;;;;;;;;;;;9.90;99.90;;;;;;5075507;28;19920;-72
2021/05/17 01:27:30;;;;;;;;;;;9.90;99.90;;;;;;5075661;28;19943;-71
2021/05/17 01:29:57;;;;;;;;;;;9.90;99.90;;;;;;5075731;28;19977;-71
2021/05/17 01:32:23;;;;;;;;;;;9.80;99.90;;;;;;5075555;28;19921;-71
2021/05/17 01:34:50;;;;;;;;;;;9.90;99.90;;;;;;5075265;28;19931;-71
2021/05/17 01:37:16;;;;;;;;;;;9.80;99.90;;;;;;5075483;28;19921;-71
2021/05/17 01:39:42;;;;;;;;;;;9.80;99.90;;;;;;5075693;28;20242;-71
2021/05/17 01:42:10;;;;;;;;;;;9.80;99.90;;;;;;5075321;28;19920;-71
2021/05/17 01:44:37;;;;;;;;;;;9.80;99.90;;;;;;5075042;28;19920;-71
2021/05/17 01:47:04;;;;;;;;;;;9.80;99.90;;;;;;5075361;28;19973;-72
2021/05/17 01:49:30;;;;;;;;;;;9.70;99.90;;;;;;5075218;28;19927;-72
2021/05/17 01:51:56;;;;;;;;;;;9.70;99.90;;;;;;5075410;28;19920;-72
2021/05/17 01:54:23;;;;;;;;;;;9.70;99.90;;;;;;5075003;28;20326;-72
2021/05/17 01:56:49;;;;;;;;;;;9.70;99.90;;;;;;5075130;28;19920;-72
2021/05/17 01:59:16;;;;;;;;;;;9.60;99.90;;;;;;5075261;28;19920;-72
2021/05/17 02:01:43;;;;;;;;;;;9.70;99.90;;;;;;5074834;28;19920;-72
2021/05/17 02:04:09;;;;;;;;;;;9.70;99.90;;;;;;5074961;28;20349;-72
2021/05/17 02:06:36;;;;;;;;;;;9.70;99.90;;;;;;5075028;28;19920;-72
2021/05/17 02:09:02;;;;;;;;;;;9.70;99.90;;;;;;5075070;28;20308;-72
2021/05/17 02:11:28;;;;;;;;;;;9.70;99.90;;;;;;5074973;28;20032;-72
2021/05/17 02:13:55;;;;;;;;;;;9.70;99.90;;;;;;5075055;28;19950;-72
2021/05/17 02:16:22;;;;;;;;;;;9.70;99.90;;;;;;5075000;28;19920;-72
2021/05/17 02:18:49;;;;;;;;;;;9.70;99.90;;;;;;5075015;28;20083;-72
2021/05/17 02:21:15;;;;;;;;;;;9.70;99.90;;;;;;5075134;28;19930;-73
2021/05/17 02:23:42;;;;;;;;;;;9.70;99.90;;;;;;5074644;28;20361;-72
2021/05/17 02:26:08;;;;;;;;;;;9.70;99.90;;;;;;5074927;28;19925;-72
2021/05/17 02:28:35;;;;;;;;;;;9.60;99.90;;;;;;5074861;28;19932;-72
2021/05/17 02:31:02;;;;;;;;;;;9.60;99.90;;;;;;5074797;28;19920;-72
2021/05/17 02:33:30;;;;;;;;;;;9.60;99.90;;;;;;5074700;28;19920;-72
2021/05/17 02:35:56;;;;;;;;;;;9.50;99.90;;;;;;5074734;28;19946;-72
2021/05/17 02:38:23;;;;;;;;;;;9.40;99.90;;;;;;5074668;28;19939;-72
2021/05/17 02:40:49;;;;;;;;;;;9.40;99.90;;;;;;5074825;28;19930;-72
2021/05/17 02:43:16;;;;;;;;;;;9.40;99.90;;;;;;5074918;28;19920;-72
2021/05/17 02:45:42;;;;;;;;;;;9.40;99.90;;;;;;5074769;28;19920;-72
2021/05/17 02:48:09;;;;;;;;;;;9.40;99.90;;;;;;5074858;28;19924;-72
2021/05/17 02:50:37;;;;;;;;;;;9.40;99.90;;;;;;5074797;28;19947;-72
2021/05/17 02:53:18;;;;;;;;;;;9.40;99.90;;;;;;5074521;28;19928;-72
2021/05/17 02:55:45;;;;;;;;;;;9.40;99.90;;;;;;5074576;28;19981;-72
2021/05/17 02:58:11;;;;;;;;;;;9.50;99.90;;;;;;5078381;28;19921;-72
2021/05/17 03:00:37;;;;;;;;;;;9.50;99.90;;;;;;5078595;28;20006;-72
2021/05/17 03:03:05;;;;;;;;;;;9.50;99.90;;;;;;5078588;28;19969;-72
2021/05/17 03:05:32;;;;;;;;;;;9.50;99.90;;;;;;5078544;28;19955;-72
2021/05/17 03:08:00;;;;;;;;;;;9.50;99.90;;;;;;5078280;28;20022;-72
2021/05/17 03:10:27;;;;;;;;;;;9.50;99.90;;;;;;5078378;28;19928;-72
2021/05/17 03:12:53;;;;;;;;;;;9.60;99.90;;;;;;5078155;28;19920;-72
2021/05/17 03:15:19;;;;;;;;;;;9.50;99.90;;;;;;5077929;28;20315;-72
2021/05/17 03:17:46;;;;;;;;;;;9.60;99.90;;;;;;5078070;28;19921;-72
2021/05/17 03:20:12;;;;;;;;;;;9.60;99.90;;;;;;5077937;28;19921;-72
2021/05/17 03:22:39;;;;;;;;;;;9.60;99.90;;;;;;5078229;28;19932;-72
2021/05/17 03:25:07;;;;;;;;;;;9.60;99.90;;;;;;5077846;28;19942;-72
2021/05/17 03:27:33;;;;;;;;;;;9.60;99.90;;;;;;5078075;28;19920;-72
2021/05/17 03:29:59;;;;;;;;;;;9.60;99.90;;;;;;5077806;28;19931;-72
2021/05/17 03:32:26;;;;;;;;;;;9.70;99.90;;;;;;5078046;28;19947;-72
2021/05/17 03:34:53;;;;;;;;;;;9.70;99.90;;;;;;5078003;28;19924;-72
2021/05/17 03:37:19;;;;;;;;;;;9.70;99.90;;;;;;5077817;28;19939;-72
2021/05/17 03:39:45;;;;;;;;;;;9.70;99.90;;;;;;5077783;28;19924;-72
2021/05/17 03:42:12;;;;;;;;;;;9.70;99.90;;;;;;5077820;28;19920;-72
2021/05/17 03:44:39;;;;;;;;;;;9.80;99.90;;;;;;5077812;28;20234;-72
2021/05/17 03:47:05;;;;;;;;;;;9.80;99.90;;;;;;5077755;28;19920;-72
2021/05/17 03:49:31;;;;;;;;;;;9.80;99.90;;;;;;5077465;28;20337;-72
2021/05/17 03:51:58;;;;;;;;;;;9.80;99.90;;;;;;5077952;28;19924;-72
2021/05/17 03:54:24;;;;;;;;;;;9.80;99.90;;;;;;5077730;28;19920;-72
2021/05/17 03:56:50;;;;;;;;;;;9.80;99.90;;;;;;5077428;28;19986;-72
2021/05/17 03:59:18;;;;;;;;;;;9.80;99.90;;;;;;5077534;28;20140;-72
2021/05/17 04:01:45;;;;;;;;;;;9.80;99.90;;;;;;5077503;28;19933;-72
2021/05/17 04:04:12;;;;;;;;;;;9.80;99.90;;;;;;5077371;28;20302;-72
2021/05/17 04:06:45;;;;;;;;;;;9.80;99.90;;;;;;5077175;28;19920;-72
2021/05/17 04:14:40;;;;;;;;;;;9.80;99.90;;;;;;5077198;28;20368;-72
2021/05/17 04:17:07;;;;;;;;;;;9.90;99.90;;;;;;5077066;28;19928;-72
2021/05/17 04:19:33;;;;;;;;;;;9.90;99.90;;;;;;5077066;28;19920;-72
2021/05/17 04:21:59;;;;;;;;;;;9.90;99.90;;;;;;5076834;28;19920;-72
2021/05/17 04:24:26;;;;;;;;;;;9.90;99.90;;;;;;5076781;28;19920;-72
2021/05/17 04:26:52;;;;;;;;;;;9.90;99.90;;;;;;5077058;28;19921;-72
2021/05/17 04:29:18;;;;;;;;;;;9.90;99.90;;;;;;5076944;28;19921;-72
2021/05/17 04:31:47;;;;;;;;;;;9.90;99.90;;;;;;5076851;28;20001;-72
2021/05/17 04:34:13;;;;;;;;;;;9.90;99.90;;;;;;5076800;28;19920;-72
2021/05/17 04:36:39;;;;;;;;;;;9.90;99.90;;;;;;5076557;28;19920;-72
2021/05/17 04:39:06;;;;;;;;;;;9.90;99.90;;;;;;5076516;28;19930;-72
2021/05/17 04:41:32;;;;;;;;;;;9.90;99.90;;;;;;5076408;28;19921;-72
2021/05/17 04:43:59;;;;;;;;;;;9.80;99.90;;;;;;5076467;28;19932;-72
2021/05/17 04:46:25;;;;;;;;;;;9.80;99.90;;;;;;5076396;28;19920;-72
2021/05/17 04:48:52;;;;;;;;;;;9.80;99.90;;;;;;5076394;28;19920;-72
2021/05/17 04:51:18;;;;;;;;;;;9.80;99.90;;;;;;5076347;28;19920;-72
2021/05/17 04:53:45;;;;;;;;;;;9.80;99.90;;;;;;5076168;28;19920;-72
2021/05/17 04:56:11;;;;;;;;;;;9.80;99.90;;;;;;5076262;28;19920;-72
2021/05/17 04:58:37;;;;;;;;;;;9.80;99.90;;;;;;5076248;28;19924;-72
2021/05/17 05:01:04;;;;;;;;;;;9.80;99.90;;;;;;5076168;28;19920;-72
2021/05/17 05:03:30;;;;;;;;;;;9.70;99.90;;;;;;5076049;28;19932;-72
2021/05/17 05:05:57;;;;;;;;;;;9.70;99.90;;;;;;5076091;28;19921;-72
2021/05/17 05:08:24;;;;;;;;;;;9.70;99.90;;;;;;5076234;28;19928;-72
2021/05/17 05:10:50;;;;;;;;;;;9.70;99.90;;;;;;5076047;28;19985;-72
2021/05/17 05:13:16;;;;;;;;;;;9.70;99.90;;;;;;5075986;28;19947;-72
2021/05/17 05:15:43;;;;;;;;;;;9.70;99.90;;;;;;5075855;28;20368;-72
2021/05/17 05:18:09;;;;;;;;;;;9.70;99.90;;;;;;5075965;28;19920;-72
2021/05/17 05:20:36;;;;;;;;;;;9.70;99.90;;;;;;5075169;28;19975;-72
2021/05/17 05:23:04;;;;;;;;;;;9.80;99.90;;;;;;5075551;28;19986;-72
2021/05/17 05:25:40;;;;;;;;;;;9.80;99.90;;;;;;5075522;28;19943;-72
2021/05/17 05:28:07;;;;;;;;;;;9.90;99.90;;;;;;5075611;28;20281;-72
2021/05/17 05:30:44;;;;;;;;;;;9.90;99.90;;;;;;5075618;28;19928;-72
2021/05/17 05:33:15;;;;;;;;;;;10.00;99.90;;;;;;5075483;28;19921;-72
2021/05/17 05:35:41;;;;;;;;;;;10.00;99.90;;;;;;5075435;28;20022;-72
2021/05/17 05:38:09;;;;;;;;;;;10.00;99.90;;;;;;5075720;28;19934;-72
2021/05/17 05:40:35;;;;;;;;;;;10.00;99.90;;;;;;5075339;28;19934;-72
2021/05/17 05:43:01;;;;;;;;;;;10.10;99.90;;;;;;5075265;28;19920;-72
2021/05/17 05:45:28;;;;;;;;;;;10.10;99.90;;;;;;5075235;28;19924;-72
2021/05/17 05:47:54;;;;;;;;;;;10.20;99.90;;;;;;5075277;28;19920;-72
2021/05/17 05:50:20;;;;;;;;;;;10.20;99.90;;;;;;5075494;28;19938;-72
2021/05/17 05:52:47;;;;;;;;;;;10.30;99.90;;;;;;5075437;28;19946;-72
2021/05/17 05:55:16;;;;;;;;;;;10.30;99.90;;;;;;5075274;28;19920;-72
2021/05/17 05:57:43;;;;;;;;;;;10.40;99.90;;;;;;5075285;28;20296;-72
2021/05/17 06:00:10;;;;;;;;;;;10.50;99.90;;;;;;5075102;28;19920;-72
2021/05/17 06:02:37;;;;;;;;;;;10.50;99.90;;;;;;5075095;28;19945;-72
2021/05/17 06:05:03;;;;;;;;;;;10.60;99.90;;;;;;5075296;28;19920;-72
2021/05/17 06:07:30;;;;;;;;;;;10.60;99.90;;;;;;5075107;28;19931;-72
2021/05/17 06:09:56;;;;;;;;;;;10.70;99.90;;;;;;5075217;28;19920;-72
2021/05/17 06:12:24;;;;;;;;;;;10.80;99.90;;;;;;5075072;28;19920;-72
2021/05/17 06:14:56;;;;;;;;;;;10.90;99.90;;;;;;5074872;28;19973;-72
2021/05/17 06:17:23;;;;;;;;;;;11.10;99.90;;;;;;5075232;28;20265;-72
2021/05/17 06:19:50;;;;;;;;;;;11.20;99.90;;;;;;5075100;28;19920;-72
2021/05/17 06:22:16;;;;;;;;;;;11.40;99.90;;;;;;5074838;28;19928;-72
2021/05/17 06:24:43;;;;;;;;;;;11.40;99.90;;;;;;5074719;28;19920;-72
2021/05/17 06:27:09;;;;;;;;;;;11.40;99.90;;;;;;5074957;28;19920;-72
2021/05/17 06:29:37;;;;;;;;;;;11.50;99.90;;;;;;5074763;28;19930;-72
2021/05/17 06:32:04;;;;;;;;;;;12.00;99.90;;;;;;5078674;28;20338;-72
2021/05/17 06:34:30;;;;;;;;;;;12.20;99.90;;;;;;5079063;28;19920;-72
2021/05/17 06:36:57;;;;;;;;;;;12.30;99.90;;;;;;5078931;28;20254;-72
2021/05/17 06:39:23;;;;;;;;;;;12.30;99.90;;;;;;5078941;28;20253;-72
2021/05/17 06:41:50;;;;;;;;;;;12.50;99.90;;;;;;5078953;28;20235;-72
2021/05/17 06:44:16;;;;;;;;;;;12.40;99.90;;;;;;5078675;28;19920;-72
2021/05/17 06:46:43;;;;;;;;;;;12.40;99.90;;;;;;5078878;28;19920;-72
2021/05/17 06:49:10;;;;;;;;;;;12.20;99.90;;;;;;5078855;28;19920;-72
2021/05/17 06:51:36;;;;;;;;;;;12.20;99.90;;;;;;5078767;28;19920;-72
2021/05/17 06:54:03;;;;;;;;;;;12.00;99.90;;;;;;5078844;28;20303;-72
2021/05/17 06:56:38;;;;;;;;;;;12.00;99.90;;;;;;5078434;28;19920;-72
2021/05/17 06:59:11;;;;;;;;;;;11.90;99.90;;;;;;5078748;28;20230;-72
2021/05/17 07:01:37;;;;;;;;;;;11.80;99.90;;;;;;5078585;28;19920;-72
2021/05/17 07:04:05;;;;;;;;;;;11.70;99.90;;;;;;5078449;28;19928;-72
2021/05/17 07:06:32;;;;;;;;;;;11.70;99.90;;;;;;5078370;28;19920;-72
2021/05/17 07:11:47;;;;;;;;;;;11.60;99.90;;;;;;5078261;28;19923;-72
2021/05/17 07:14:14;;;;;;;;;;;11.60;99.90;;;;;;5078156;28;19920;-72
2021/05/17 07:16:40;;;;;;;;;;;11.70;99.90;;;;;;5078044;28;19920;-72
2021/05/17 07:19:07;;;;;;;;;;;11.80;99.90;;;;;;5078142;28;19920;-72
2021/05/17 07:24:20;;;;;;;;;;;13.20;99.90;;;;;;5077876;28;19930;-72
2021/05/17 07:26:46;;;;;;;;;;;13.30;99.90;;;;;;5078064;28;19931;-72
2021/05/17 07:29:13;;;;;;;;;;;13.20;99.90;;;;;;5078022;28;19981;-72
2021/05/17 07:31:39;;;;;;;;;;;13.10;99.90;;;;;;5078066;28;19992;-72
2021/05/17 07:34:05;;;;;;;;;;;13.20;99.90;;;;;;5077818;28;20252;-72
2021/05/17 07:36:32;;;;;;;;;;;13.40;99.90;;;;;;5077584;28;20360;-72
2021/05/17 07:38:59;;;;;;;;;;;13.50;99.90;;;;;;5077628;28;19920;-73
2021/05/17 07:41:25;;;;;;;;;;;13.50;99.90;;;;;;5077502;28;19920;-72
2021/05/17 07:43:52;;;;;;;14.07;8.38;;;14.30;99.90;;;;;;5076265;28;20419;-72
2021/05/17 07:46:18;;;;;;;15.57;6.88;;;15.50;99.90;;;;;;5077112;28;20548;-72
2021/05/17 07:49:08;;;;;;;12.40;6.50;;;15.90;99.90;;;;;;5077027;28;20052;-73
2021/05/17 07:51:36;;;;;;;12.18;6.38;;;16.50;99.90;;;;;;5077249;28;20373;-73
2021/05/17 07:54:03;;;;;;;13.95;7.28;;;18.00;99.90;;;;;;5077027;28;20048;-73
2021/05/17 07:56:29;;;;;;;9.05;5.03;;;18.20;99.90;;;;;;5076802;28;20040;-73
2021/05/17 07:58:56;;;;;;;10.85;6.20;;;19.00;99.90;;;;;;5076863;28;20466;-73
2021/05/17 08:01:22;;;;;;;8.60;4.88;;;19.40;99.90;;;;;;5076835;28;20052;-73
2021/05/17 08:03:50;;;;;;;10.73;5.22;;;18.80;99.90;;;;;;5076683;28;20048;-73
2021/05/17 08:06:16;;;;;;;8.98;5.20;;;17.80;99.90;;;;;;5076676;28;20044;-73
2021/05/17 08:08:44;;;;;;;11.35;5.88;;;16.90;99.90;;;;;;5076826;28;20071;-73
2021/05/17 08:11:10;;;;;;;7.63;4.78;;;16.10;99.90;;;;;;5076742;28;20054;-73
2021/05/17 08:13:38;;;;;;;8.38;5.10;;;15.60;99.90;;;;;;5076504;28;20059;-73
2021/05/17 08:16:05;;;;;;;11.65;5.47;;;15.10;99.90;;;;;;5076287;28;20044;-73
2021/05/17 08:18:32;;;;;;;13.75;5.30;;;14.70;99.90;;;;;;5076744;28;20139;-73
2021/05/17 08:20:59;;;;;;;9.55;4.60;;;14.30;99.90;;;;;;5076364;28;20454;-73
2021/05/17 08:23:25;;;;;;;11.48;5.00;;;14.10;99.90;;;;;;5076485;28;20052;-73
2021/05/17 08:25:53;;;;;;;10.40;4.82;;;13.80;99.90;;;;;;5076520;28;20045;-73
2021/05/17 08:28:20;;;;;;;6.78;4.30;;;13.60;99.90;;;;;;5076259;28;20139;-73
2021/05/17 08:30:53;;;;;;;8.13;4.25;;;13.40;99.90;;;;;;5076343;28;20389;-73
2021/05/17 08:33:20;;;;;;;9.27;3.97;;;13.20;99.90;;;;;;5076048;28;20053;-73
2021/05/17 08:35:47;;;;;;;9.50;4.40;;;13.20;99.90;;;;;;5076165;28;20373;-72
2021/05/17 08:38:13;;;;;;;9.02;4.60;;;13.20;99.90;;;;;;5076063;28;20508;-73
2021/05/17 08:40:41;;;;;;;11.27;5.03;;;13.20;99.90;;;;;;5076152;28;20048;-72
2021/05/17 08:43:08;;;;;;;9.98;4.57;;;13.30;99.90;;;;;;5076030;28;20044;-72
2021/05/17 08:45:35;;;;;;;8.50;4.18;;;13.30;99.90;;;;;;5075991;28;20054;-72
2021/05/17 08:48:01;;;;;;;10.10;5.13;;;13.30;99.90;;;;;;5076120;28;20052;-73
2021/05/17 08:50:28;;;;;;;11.88;5.20;;;13.30;99.90;;;;;;5075787;28;20048;-72
2021/05/17 08:52:55;;;;;;;9.20;5.57;;;13.10;99.90;;;;;;5075781;28;20063;-71
2021/05/17 08:55:22;;;;;;;8.73;3.60;;;12.90;99.90;;;;;;5074882;28;20049;-71
2021/05/17 08:57:49;;;;;;;2.92;1.08;;;12.60;99.90;;;;;;5075617;28;20064;-70
2021/05/17 09:00:18;;;;;;;2.85;1.00;;;12.30;99.90;;;;;;5075672;28;20041;-72
2021/05/17 09:02:46;;;;;;;1.10;0.57;;;11.80;99.90;;;;;;5073169;28;20048;-73
2021/05/17 09:05:18;;;;;;;2.60;0.40;;;11.40;99.90;;;;;;5075065;28;20051;-73
2021/05/17 09:07:48;;;;;;;0.50;0.40;;;11.10;99.90;;;;;;5075559;28;20058;-73
2021/05/17 09:10:21;;;;;;;1.08;0.70;;;10.80;99.90;;;;;;5075122;28;20048;-73
2021/05/17 09:13:06;;;;;;;1.60;0.65;;;10.70;99.90;;;;;;5076406;28;20512;-73
2021/05/17 09:15:37;;;;;;;0.95;0.35;;;10.60;99.90;;;;;;5075621;28;20048;-73
2021/05/17 09:18:05;;;;;;;1.20;0.35;;;10.40;99.90;;;;;;5075860;28;20048;-73
2021/05/17 09:20:37;;;;;;;1.08;0.40;;;10.30;99.90;;;;;;5075345;28;20052;-73
2021/05/17 09:23:14;;;;;;;0.70;0.40;;;10.30;99.90;;;;;;5075146;28;20080;-73
2021/05/17 09:26:20;;;;;;;2.65;0.50;;;10.30;99.90;;;;;;5075015;28;20535;-73
2021/05/17 09:28:49;;;;;;;1.20;0.60;;;10.20;99.90;;;;;;5075134;28;20485;-73
2021/05/17 09:31:22;;;;;;;0.73;0.30;;;10.30;99.90;;;;;;5075111;28;20049;-73
2021/05/17 09:33:49;;;;;;;0.43;0.30;;;10.30;99.90;;;;;;5074888;28;20049;-73
2021/05/17 09:36:29;;;;;;;2.20;0.43;;;10.30;99.90;;;;;;5074910;28;20076;-73
2021/05/17 09:39:03;;;;;;;1.05;0.60;;;10.30;99.90;;;;;;5075011;28;20101;-73
2021/05/17 09:41:43;;;;;;;2.20;0.73;;;10.30;99.90;;;;;;5075336;28;20044;-74
2021/05/17 09:44:10;;;;;;;1.70;0.90;;;10.30;99.90;;;;;;5075168;28;20045;-73
2021/05/17 09:47:01;;;;;;;0.63;0.32;;;10.30;99.90;;;;;;5075029;28;20091;-73
2021/05/17 09:49:32;;;;;;;1.38;0.70;;;10.30;99.90;;;;;;5075072;28;20048;-73
2021/05/17 09:52:15;;;;;;;0.60;0.43;;;10.30;99.90;;;;;;5074919;28;20057;-73
2021/05/17 09:54:57;;;;;;;2.47;0.50;;;10.30;99.90;;;;;;5074709;28;20045;-73
2021/05/17 09:57:33;;;;;;;2.08;0.32;;;10.40;99.90;;;;;;5074908;28;20431;-74
2021/05/17 10:00:09;;;;;;;1.05;0.75;;;10.50;99.90;;;;;;5074692;28;20098;-73
2021/05/17 10:02:45;;;;;;;0.93;0.52;;;10.70;99.90;;;;;;5074590;28;20052;-73
2021/05/17 10:05:25;;;;;;;1.60;1.05;;;10.90;99.90;;;;;;5074558;28;20056;-74
2021/05/17 10:07:54;;;;;;;3.42;0.82;;;11.10;99.90;;;;;;5074872;28;20052;-74
2021/05/17 10:10:24;;;;;;;3.90;0.73;;;11.30;99.90;;;;;;5074495;28;20059;-73
2021/05/17 10:12:53;;;;;;;0.60;0.60;;;11.40;99.90;;;;;;5074665;28;20052;-73
2021/05/17 10:15:25;;;;;;;3.05;0.80;;;11.50;99.90;;;;;;5074388;28;20049;-73
2021/05/17 10:18:00;;;;;;;2.13;0.65;;;11.60;99.90;;;;;;5074567;28;20044;-73
2021/05/17 10:20:30;;;;;;;1.20;0.80;;;11.60;99.90;;;;;;5074630;28;20063;-72
2021/05/17 10:22:57;;;;;;;2.92;0.70;;;11.70;99.90;;;;;;5074420;28;20054;-72
2021/05/17 10:25:25;;;;;;;1.90;0.70;;;11.60;99.90;;;;;;5074153;28;20397;-73
2021/05/17 10:27:58;;;;;;;1.27;0.90;;;11.60;99.90;;;;;;5093860;28;20493;-72
2021/05/17 10:30:26;;;;;;;2.45;0.85;;;11.60;99.90;;;;;;5094256;28;20060;-72
2021/05/17 10:32:57;;;;;;;1.27;0.65;;;11.50;99.90;;;;;;5093217;28;20047;-72
2021/05/17 10:35:25;;;;;;;1.00;0.75;;;11.40;99.90;;;;;;5094230;28;20059;-71
2021/05/17 10:37:55;;;;;;;1.67;1.05;;;11.30;99.90;;;;;;5094496;28;20427;-72
2021/05/17 10:40:37;;;;;;;1.13;0.68;;;11.20;99.90;;;;;;5093640;28;20048;-72
2021/05/17 10:43:19;;;;;;;1.48;0.88;;;11.20;99.90;;;;;;5094000;28;20044;-72
2021/05/17 10:48:32;;;;;;;1.20;0.52;;;11.00;99.90;;;;;;5094638;28;20062;-72
2021/05/17 10:51:15;;;;;;;4.75;1.25;;;10.90;99.90;;;;;;5094040;28;20471;-73
2021/05/17 10:53:46;;;;;;;1.55;1.05;;;10.90;99.90;;;;;;5094126;28;20052;-72
2021/05/17 10:56:13;;;;;;;1.88;1.00;;;10.80;99.90;;;;;;5094326;28;20040;-72
2021/05/17 11:01:53;;;;;;;3.00;1.27;;;10.80;99.90;;;;;;5094363;28;20052;-73
2021/05/17 11:04:29;;;;;;;3.05;1.17;;;10.90;99.90;;;;;;5094493;28;20090;-72
2021/05/17 11:07:23;;;;;;;3.38;1.20;;;10.90;99.90;;;;;;5094427;28;20522;-73
2021/05/17 11:09:55;;;;;;;3.28;1.35;;;11.00;99.90;;;;;;5094317;28;20134;-74
2021/05/17 11:13:02;;;;;;;4.10;1.67;;;10.90;99.90;;;;;;5094278;28;20475;-74
2021/05/17 11:15:53;;;;;;;2.10;1.50;;;10.80;99.90;;;;;;5094135;28;20056;-73
2021/05/17 11:18:28;;;;;;;4.88;1.70;;;10.70;99.90;;;;;;5096468;28;20081;-73
2021/05/17 11:21:00;;;;;;;2.83;1.30;;;10.70;99.90;;;;;;5098360;28;20373;-72
2021/05/17 11:23:46;;;;;;;5.47;2.67;;;10.60;99.90;;;;;;5096022;28;20052;-73
2021/05/17 11:26:17;;;;;;;6.43;1.90;;;10.70;99.90;;;;;;5097423;28;20055;-72
2021/05/17 11:29:06;;;;;;;6.03;1.55;;;10.70;99.90;;;;;;5097565;28;20135;-73
2021/05/17 11:31:45;;;;;;;3.67;2.10;;;10.80;99.90;;;;;;5097798;28;20144;-72
2021/05/17 11:34:26;;;;;;;6.40;2.97;;;10.90;99.90;;;;;;5097738;28;20492;-72
2021/05/17 11:37:12;;;;;;;4.63;2.60;;;11.00;99.90;;;;;;5097603;28;20055;-72
2021/05/17 11:39:41;;;;;;;6.93;2.88;;;11.00;99.90;;;;;;5097177;28;20485;-72
2021/05/17 11:42:13;;;;;;;3.83;2.00;;;10.90;99.90;;;;;;5097361;28;20109;-72
2021/05/17 11:44:44;;;;;;;5.78;2.42;;;11.00;99.90;;;;;;5096440;28;20453;-72
2021/05/17 11:47:14;;;;;;;7.63;2.38;;;11.20;99.90;;;;;;5096506;28;20469;-72
2021/05/17 11:49:42;;;;;;;5.45;2.60;;;11.30;99.90;;;;;;5097347;28;20047;-72
2021/05/17 11:52:18;;;;;;;4.25;2.28;;;11.40;99.90;;;;;;5097061;28;20056;-71
2021/05/17 11:54:49;;;;;;;3.35;1.92;;;11.40;99.90;;;;;;5097260;28;20382;-71
2021/05/17 11:57:19;;;;;;;5.50;2.95;;;11.50;99.90;;;;;;5097264;28;20370;-72
2021/05/17 11:59:50;;;;;;;3.40;1.95;;;11.60;99.90;;;;;;5097143;28;20525;-73
2021/05/17 12:02:20;;;;;;;3.83;2.15;;;11.70;99.90;;;;;;5097088;28;20116;-72
2021/05/17 12:04:50;;;;;;;4.35;2.70;;;11.80;99.90;;;;;;5097207;28;20074;-73
2021/05/17 12:07:23;;;;;;;5.80;1.42;;;11.90;99.90;;;;;;5097129;28;20482;-73
2021/05/17 12:10:00;;;;;;;4.03;1.65;;;12.10;99.90;;;;;;5096954;28;20131;-72
2021/05/17 12:12:30;;;;;;;3.00;1.30;;;12.10;99.90;;;;;;5096964;28;20098;-73
2021/05/17 12:15:00;;;;;;;2.35;0.88;;;12.10;99.90;;;;;;5097040;28;20078;-72
2021/05/17 12:17:29;;;;;;;2.90;0.82;;;12.30;99.90;;;;;;5096810;28;20059;-73
2021/05/17 12:19:58;;;;;;;1.13;0.52;;;12.30;99.90;;;;;;5095610;28;20058;-73
2021/05/17 12:22:32;;;;;;;0.70;0.50;;;12.40;99.90;;;;;;5097066;28;20056;-72
2021/05/17 12:25:03;;;;;;;3.35;1.02;;;12.30;99.90;;;;;;5096460;28;20384;-73
2021/05/17 12:27:33;;;;;;;4.45;1.80;;;12.30;99.90;;;;;;5096048;28;20062;-72
2021/05/17 12:30:04;;;;;;;1.02;0.60;;;12.30;99.90;;;;;;5096369;28;20062;-72
2021/05/17 12:32:44;;;;;;;7.05;1.00;;;12.50;99.90;;;;;;5096823;28;20127;-72
2021/05/17 12:35:13;;;;;;;6.70;1.00;;;12.60;99.90;;;;;;5096470;28;20110;-72
2021/05/17 12:37:44;;;;;;;0.65;0.43;;;12.60;99.90;;;;;;5096315;28;20059;-72
2021/05/17 12:40:30;;;;;;;2.05;0.60;;;12.60;99.90;;;;;;5096525;28;20048;-72
2021/05/17 12:43:12;;;;;;;3.67;0.65;;;12.70;99.90;;;;;;5096512;28;20044;-72
2021/05/17 12:45:53;;;;;;;;;;;12.60;99.90;;;;;;5096848;28;20108;-72
2021/05/17 12:48:25;;;;;;;;;;;12.60;99.90;;;;;;5096706;28;19948;-72
2021/05/17 12:50:52;;;;;;;;;;;12.60;99.90;;;;;;5096693;28;19967;-72
2021/05/17 12:53:28;;;;;;;;;;;12.60;99.90;;;;;;5096517;28;19923;-72
2021/05/17 12:55:59;;;;;;;;;;;12.60;99.90;;;;;;5096509;28;20015;-71
2021/05/17 12:58:30;;;;;;;;;;;12.70;99.90;;;;;;5096439;28;20317;-71
2021/05/17 13:00:59;;;;;;;;;;;12.70;99.90;;;;;;5096688;28;19919;-71
2021/05/17 13:03:37;;;;;;;;;;;12.80;99.90;;;;;;5096407;28;19999;-71
2021/05/17 13:06:11;;;;;;;;;;;12.90;99.90;;;;;;5096440;28;19985;-71
2021/05/17 13:08:50;;;;;;;;;;;13.00;99.90;;;;;;5096222;28;19959;-71
2021/05/17 13:11:25;;;;;;;;;;;13.10;99.90;;;;;;5096154;28;20246;-71
2021/05/17 13:13:56;;;;;;;;;;;13.10;99.90;;;;;;5095935;28;19919;-72
2021/05/17 13:16:32;;;;;;;0.03;0.03;;;13.10;99.90;;;;;;5095923;28;19927;-72
2021/05/17 13:19:41;;;;;;;2.45;0.47;;;13.00;99.90;;;;;;5095663;28;20056;-72
2021/05/17 13:30:32;;;;;;;2.40;0.70;;;12.60;99.90;;;;;;5095699;28;20063;-71
2021/05/17 13:32:58;;;;;;;1.90;0.63;;;12.60;99.90;;;;;;5095417;28;20054;-73
2021/05/17 13:35:25;;;;;;;2.88;0.40;;;12.70;99.90;;;;;;5093870;28;20101;-74
2021/05/17 13:37:51;;;;;;;1.98;0.70;;;12.70;99.90;;;;;;5095229;28;20040;-71
2021/05/17 13:40:19;;;;;;;2.35;1.00;;;12.80;99.90;;;;;;5094605;28;20060;-72
2021/05/17 13:42:46;;;;;;;2.08;0.47;;;13.00;99.90;;;;;;5095349;28;20048;-74
2021/05/17 13:45:14;;;;;;;1.10;0.28;;;13.00;99.90;;;;;;5095500;28;20454;-71
2021/05/17 13:47:40;;;;;;;;;;;13.10;99.90;;;;;;5095523;28;20044;-71
2021/05/17 13:50:07;;;;;;;;;;;13.20;99.90;;;;;;5095501;28;19935;-71
2021/05/17 13:52:34;;;;;;;;;;;13.10;99.90;;;;;;5095477;28;19934;-71
2021/05/17 13:55:00;;;;;;;;;;;13.10;99.90;;;;;;5095456;28;19985;-71
2021/05/17 13:57:27;;;;;;;;;;;13.10;99.90;;;;;;5095480;28;19989;-71
2021/05/17 13:59:54;;;;;;;;;;;13.20;99.90;;;;;;5093984;28;19961;-71
2021/05/17 14:02:20;;;;;;;;;;;13.20;99.90;;;;;;5095062;28;19924;-71
2021/05/17 14:04:46;;;;;;;;;;;13.10;99.90;;;;;;5095403;28;20003;-71
2021/05/17 14:07:13;;;;;;;;;;;13.10;99.90;;;;;;5095320;28;19924;-71
2021/05/17 14:09:39;;;;;;;;;;;13.10;99.90;;;;;;5094922;28;19927;-71
2021/05/17 14:12:06;;;;;;;;;;;13.10;99.90;;;;;;5095129;28;19977;-71
2021/05/17 14:14:33;;;;;;;;;;;13.20;99.90;;;;;;5095298;28;19924;-71
2021/05/17 14:17:00;;;;;;;;;;;13.20;99.90;;;;;;5094898;28;19936;-71
2021/05/17 14:19:26;;;;;;;;;;;13.30;99.90;;;;;;5094397;28;20415;-70
2021/05/17 14:21:53;;;;;;;;;;;13.40;99.90;;;;;;5095161;28;19930;-70